Time;durP1;ratioP1;P1;durP2;ratioP2;P2;SDS_P1;SDS_P2;PMS_P1;PMS_P2;Temp;Humidity;BMP_temperature;BMP_pressure;BME280_temperature;BME280_humidity;BME280_pressure;Samples;Min_cycle;Max_cycle;Signal;HPM_P1;HPM_P2
2021/08/12 00:01:45;;;;;;;3.60;2.20;;;18.70;67.10;;;;;;5048274;28;20029;-76
2021/08/12 00:04:11;;;;;;;4.03;2.30;;;18.70;67.20;;;;;;5046107;28;20025;-77
2021/08/12 00:06:37;;;;;;;3.63;2.10;;;18.70;67.20;;;;;;5048471;28;20036;-76
2021/08/12 00:09:02;;;;;;;3.40;2.42;;;18.60;67.40;;;;;;5037190;28;20052;-77
2021/08/12 00:11:28;;;;;;;3.75;2.40;;;18.60;67.60;;;;;;5047055;28;20017;-76
2021/08/12 00:13:53;;;;;;;3.25;2.58;;;18.60;67.60;;;;;;5041371;28;20036;-76
2021/08/12 00:16:19;;;;;;;4.25;2.40;;;18.60;67.50;;;;;;5048056;28;20029;-76
2021/08/12 00:18:44;;;;;;;2.53;1.92;;;18.60;67.60;;;;;;5050075;28;20051;-76
2021/08/12 00:21:10;;;;;;;3.88;2.30;;;18.60;67.60;;;;;;5046885;28;20392;-77
2021/08/12 00:23:35;;;;;;;3.60;2.10;;;18.60;67.50;;;;;;5051953;28;20013;-77
2021/08/12 00:26:01;;;;;;;3.10;2.47;;;18.60;67.70;;;;;;5052625;28;20025;-77
2021/08/12 00:28:26;;;;;;;2.50;2.30;;;18.50;67.80;;;;;;5048407;28;20065;-77
2021/08/12 00:30:52;;;;;;;3.85;2.80;;;18.50;67.80;;;;;;5052633;28;20446;-76
2021/08/12 00:33:17;;;;;;;3.17;2.25;;;18.50;67.80;;;;;;5047563;28;20468;-76
2021/08/12 00:35:43;;;;;;;2.42;2.05;;;18.50;67.90;;;;;;5044153;28;20013;-76
2021/08/12 00:38:08;;;;;;;3.58;2.50;;;18.40;68.00;;;;;;5052230;28;20052;-77
2021/08/12 00:40:34;;;;;;;3.10;2.50;;;18.40;68.00;;;;;;5052495;28;20025;-77
2021/08/12 00:42:59;;;;;;;3.42;2.40;;;18.40;68.00;;;;;;5051458;28;20067;-77
2021/08/12 00:45:25;;;;;;;3.28;2.40;;;18.30;68.00;;;;;;5051419;28;20021;-76
2021/08/12 00:47:51;;;;;;;2.80;2.50;;;18.30;68.10;;;;;;5052087;28;20025;-77
2021/08/12 00:50:18;;;;;;;3.58;2.58;;;18.30;68.30;;;;;;5051274;28;20025;-76
2021/08/12 00:52:44;;;;;;;3.78;2.65;;;18.30;68.40;;;;;;5049481;28;20029;-76
2021/08/12 00:55:10;;;;;;;4.00;2.88;;;18.30;68.40;;;;;;5039865;28;20032;-76
2021/08/12 00:57:36;;;;;;;2.97;2.50;;;18.30;68.40;;;;;;5046113;28;20068;-76
2021/08/12 01:00:03;;;;;;;4.07;2.75;;;18.20;68.40;;;;;;5047710;28;20048;-76
2021/08/12 01:02:29;;;;;;;4.47;2.90;;;18.20;68.40;;;;;;5044971;28;20017;-76
2021/08/12 01:04:55;;;;;;;3.67;2.80;;;18.20;68.40;;;;;;5051514;28;20510;-76
2021/08/12 01:07:26;;;;;;;4.30;2.92;;;18.20;68.50;;;;;;5047072;28;20021;-76
2021/08/12 01:10:05;;;;;;;4.18;3.13;;;18.20;68.70;;;;;;5046062;28;20036;-76
2021/08/12 01:12:54;;;;;;;4.35;3.15;;;18.20;68.60;;;;;;5052191;28;20376;-77
2021/08/12 01:15:46;;;;;;;3.90;2.90;;;18.20;68.50;;;;;;5041943;28;20048;-77
2021/08/12 01:18:26;;;;;;;5.43;3.42;;;18.10;69.30;;;;;;5050765;28;20021;-77
2021/08/12 01:21:29;;;;;;;3.97;2.90;;;18.10;68.80;;;;;;5049779;28;20383;-76
2021/08/12 01:23:59;;;;;;;4.03;2.92;;;18.10;68.80;;;;;;5047030;28;20112;-77
2021/08/12 01:26:27;;;;;;;3.50;3.13;;;18.00;69.10;;;;;;5049806;28;20067;-76
2021/08/12 01:28:54;;;;;;;5.03;3.67;;;17.90;69.20;;;;;;5052141;28;20511;-76
2021/08/12 01:31:26;;;;;;;4.80;3.67;;;17.90;69.20;;;;;;5051664;28;20048;-77
2021/08/12 01:34:03;;;;;;;4.07;3.17;;;17.90;69.20;;;;;;5048638;28;20046;-76
2021/08/12 01:36:30;;;;;;;5.05;3.33;;;17.90;69.40;;;;;;5049239;28;20033;-75
2021/08/12 01:38:58;;;;;;;4.60;3.63;;;17.90;69.40;;;;;;5049980;28;20094;-76
2021/08/12 01:41:27;;;;;;;5.05;3.88;;;17.90;69.30;;;;;;5050073;28;20400;-76
2021/08/12 01:43:53;;;;;;;4.25;3.20;;;17.90;69.20;;;;;;5049633;28;20107;-75
2021/08/12 01:46:18;;;;;;;5.30;3.40;;;17.90;69.40;;;;;;5061854;28;20117;-75
2021/08/12 01:48:44;;;;;;;4.88;3.40;;;17.80;69.60;;;;;;5049643;28;20089;-75
2021/08/12 01:51:11;;;;;;;4.57;3.75;;;17.80;69.60;;;;;;5044921;28;20535;-75
2021/08/12 01:53:37;;;;;;;4.60;3.47;;;17.80;69.60;;;;;;5049386;28;20073;-75
2021/08/12 01:56:04;;;;;;;4.47;3.50;;;17.70;69.80;;;;;;5048609;28;20411;-76
2021/08/12 01:58:31;;;;;;;4.65;3.55;;;17.70;69.90;;;;;;5051974;28;20047;-75
2021/08/12 02:00:58;;;;;;;5.20;3.80;;;17.80;70.70;;;;;;5046677;28;20021;-75
2021/08/12 02:03:25;;;;;;;5.15;3.42;;;17.80;70.10;;;;;;5048754;28;20082;-76
2021/08/12 02:05:51;;;;;;;4.88;3.53;;;17.80;70.10;;;;;;5041233;28;20029;-76
2021/08/12 02:08:21;;;;;;;4.18;3.17;;;17.80;70.00;;;;;;5049610;28;20029;-75
2021/08/12 02:10:50;;;;;;;4.63;3.30;;;17.80;70.10;;;;;;5050505;28;20025;-75
2021/08/12 02:13:16;;;;;;;5.13;3.40;;;17.80;70.10;;;;;;5044497;28;20128;-75
2021/08/12 02:15:42;;;;;;;4.05;3.22;;;17.80;70.10;;;;;;5043140;28;20104;-75
2021/08/12 02:18:07;;;;;;;5.15;3.58;;;17.80;70.20;;;;;;5050161;28;20199;-76
2021/08/12 02:20:34;;;;;;;4.38;3.55;;;17.80;70.20;;;;;;5050140;28;20024;-76
2021/08/12 02:23:08;;;;;;;4.10;3.38;;;17.80;70.20;;;;;;5053332;28;20052;-76
2021/08/12 02:25:39;;;;;;;4.30;3.33;;;17.80;70.20;;;;;;5044488;28;20110;-76
2021/08/12 02:28:08;;;;;;;4.85;3.63;;;17.80;70.50;;;;;;5040917;28;20702;-75
2021/08/12 02:30:40;;;;;;;5.32;3.45;;;17.80;70.70;;;;;;5049510;28;20033;-73
2021/08/12 02:33:09;;;;;;;4.85;3.78;;;17.80;70.90;;;;;;5038834;28;20035;-75
2021/08/12 02:35:37;;;;;;;5.00;4.15;;;17.80;71.00;;;;;;5044372;28;20026;-75
2021/08/12 02:38:04;;;;;;;5.90;4.57;;;17.80;71.20;;;;;;5046438;28;20121;-75
2021/08/12 02:40:30;;;;;;;6.82;4.90;;;17.70;71.30;;;;;;5039728;28;20079;-75
2021/08/12 02:42:56;;;;;;;5.13;3.90;;;17.70;71.50;;;;;;5052443;28;20079;-75
2021/08/12 02:45:23;;;;;;;4.72;4.13;;;17.80;71.60;;;;;;5049467;28;20021;-74
2021/08/12 02:47:51;;;;;;;6.53;4.82;;;17.80;71.60;;;;;;5041976;28;20079;-74
2021/08/12 02:50:16;;;;;;;5.35;4.15;;;17.80;71.70;;;;;;5046664;28;20025;-75
2021/08/12 02:52:43;;;;;;;5.93;4.50;;;17.80;71.60;;;;;;5038969;28;20026;-75
2021/08/12 02:55:11;;;;;;;6.15;4.30;;;17.80;71.60;;;;;;5043952;28;20033;-74
2021/08/12 02:57:37;;;;;;;5.68;4.35;;;17.80;71.60;;;;;;5049110;28;20029;-75
2021/08/12 03:00:04;;;;;;;5.85;4.22;;;17.90;71.50;;;;;;5038053;28;20029;-75
2021/08/12 03:02:31;;;;;;;6.30;4.85;;;17.90;71.50;;;;;;5052356;28;20106;-75
2021/08/12 03:04:57;;;;;;;5.95;4.75;;;17.80;71.50;;;;;;5043604;28;20542;-75
2021/08/12 03:07:23;;;;;;;5.63;4.07;;;17.80;71.60;;;;;;5044699;28;20100;-75
2021/08/12 03:09:49;;;;;;;5.57;4.82;;;17.80;71.70;;;;;;5034283;28;20472;-74
2021/08/12 03:12:18;;;;;;;5.43;4.28;;;17.70;71.80;;;;;;5048595;28;20078;-74
2021/08/12 03:14:45;;;;;;;7.30;4.80;;;17.70;71.90;;;;;;5052113;28;20139;-77
2021/08/12 03:17:11;;;;;;;5.97;4.43;;;17.70;71.80;;;;;;5064680;28;20036;-74
2021/08/12 03:19:39;;;;;;;5.40;3.80;;;17.70;71.70;;;;;;5044707;28;20021;-74
2021/08/12 03:22:11;;;;;;;4.95;3.90;;;17.70;71.70;;;;;;5039217;28;20040;-74
2021/08/12 03:24:41;;;;;;;;;;;17.70;71.60;;;;;;5042761;28;20025;-74
2021/08/12 03:27:13;;;;;;;5.95;3.72;;;17.60;71.50;;;;;;5045696;28;19916;-74
2021/08/12 03:29:43;;;;;;;5.60;4.30;;;17.60;71.70;;;;;;5049199;28;20028;-76
2021/08/12 03:32:09;;;;;;;6.32;4.78;;;17.60;71.80;;;;;;5043471;28;20513;-74
2021/08/12 03:34:35;;;;;;;5.55;4.25;;;17.50;71.60;;;;;;5049798;28;20061;-75
2021/08/12 03:37:01;;;;;;;5.90;4.13;;;17.50;71.70;;;;;;5048460;28;20021;-74
2021/08/12 03:39:28;;;;;;;5.97;3.65;;;17.50;71.80;;;;;;5045604;28;20436;-75
2021/08/12 03:41:54;;;;;;;5.00;3.75;;;17.50;71.80;;;;;;5049438;28;20685;-73
2021/08/12 03:44:19;;;;;;;4.93;3.97;;;17.40;72.00;;;;;;5045796;28;20021;-74
2021/08/12 03:46:45;;;;;;;5.22;4.13;;;17.40;72.00;;;;;;5042896;28;20029;-75
2021/08/12 03:49:10;;;;;;;7.30;4.38;;;17.40;72.00;;;;;;5051207;28;20103;-74
2021/08/12 03:51:36;;;;;;;4.40;3.80;;;17.40;71.90;;;;;;5055315;28;20026;-75
2021/08/12 03:54:02;;;;;;;4.93;3.95;;;17.30;71.80;;;;;;5052983;28;20036;-75
2021/08/12 03:56:27;;;;;;;6.38;4.60;;;17.30;71.90;;;;;;5048131;28;20033;-74
2021/08/12 03:58:53;;;;;;;5.75;4.40;;;17.20;72.20;;;;;;5045179;28;20030;-74
2021/08/12 04:01:18;;;;;;;4.82;3.75;;;17.10;72.60;;;;;;5049411;28;20014;-73
2021/08/12 04:03:44;;;;;;;5.68;4.45;;;17.10;72.60;;;;;;5051275;28;20449;-74
2021/08/12 04:06:10;;;;;;;5.35;4.03;;;17.10;72.50;;;;;;5050519;28;20032;-76
2021/08/12 04:08:35;;;;;;;5.38;4.05;;;17.20;72.30;;;;;;5050347;28;20529;-76
2021/08/12 04:11:01;;;;;;;4.82;3.92;;;17.10;72.30;;;;;;5047653;28;20100;-77
2021/08/12 04:13:27;;;;;;;4.85;3.97;;;17.10;72.40;;;;;;5051244;28;20025;-76
2021/08/12 04:15:54;;;;;;;5.55;4.22;;;17.10;72.30;;;;;;5048394;28;20091;-74
2021/08/12 04:18:20;;;;;;;5.80;4.32;;;17.20;72.20;;;;;;5047910;28;20427;-74
2021/08/12 04:20:46;;;;;;;5.25;4.05;;;17.10;72.20;;;;;;5052418;28;20031;-77
2021/08/12 04:23:11;;;;;;;4.80;3.88;;;17.20;72.30;;;;;;5051194;28;20067;-77
2021/08/12 04:25:37;;;;;;;5.75;4.05;;;17.20;72.30;;;;;;5052818;28;20056;-75
2021/08/12 04:28:03;;;;;;;5.82;4.05;;;17.20;72.30;;;;;;5050418;28;20372;-75
2021/08/12 04:30:29;;;;;;;5.22;3.75;;;17.10;72.40;;;;;;5049379;28;20475;-75
2021/08/12 04:32:54;;;;;;;4.95;3.63;;;17.20;72.50;;;;;;5052535;28;20033;-75
2021/08/12 04:35:20;;;;;;;6.20;4.47;;;17.20;72.30;;;;;;5051838;28;20472;-75
2021/08/12 04:37:46;;;;;;;5.32;4.10;;;17.20;72.20;;;;;;5051627;28;20033;-75
2021/08/12 04:40:14;;;;;;;4.75;3.67;;;17.20;72.10;;;;;;5052118;28;20112;-76
2021/08/12 04:42:41;;;;;;;6.20;4.60;;;17.30;72.00;;;;;;5051302;28;20048;-77
2021/08/12 04:45:07;;;;;;;5.50;4.05;;;17.30;72.10;;;;;;5042511;28;20032;-76
2021/08/12 04:47:33;;;;;;;7.00;4.22;;;17.30;72.10;;;;;;5051248;28;20701;-77
2021/08/12 04:49:59;;;;;;;5.68;4.15;;;17.30;72.00;;;;;;5052671;28;20021;-77
2021/08/12 04:52:24;;;;;;;5.65;4.25;;;17.40;71.90;;;;;;5053706;28;20025;-76
2021/08/12 04:54:50;;;;;;;5.60;4.28;;;17.40;71.80;;;;;;5048790;28;20033;-77
2021/08/12 04:57:16;;;;;;;5.28;3.95;;;17.40;71.80;;;;;;5051179;28;20033;-77
2021/08/12 04:59:41;;;;;;;5.38;4.00;;;17.50;71.80;;;;;;5051810;28;20452;-77
2021/08/12 05:02:07;;;;;;;6.07;3.95;;;17.50;71.70;;;;;;5052291;28;20021;-76
2021/08/12 05:04:32;;;;;;;4.53;3.83;;;17.50;71.70;;;;;;5052174;28;20420;-76
2021/08/12 05:06:58;;;;;;;5.57;4.05;;;17.50;71.70;;;;;;5050564;28;20060;-76
2021/08/12 05:09:23;;;;;;;5.55;3.90;;;17.50;71.60;;;;;;5051096;28;20476;-76
2021/08/12 05:11:49;;;;;;;5.38;4.18;;;17.60;71.60;;;;;;5050243;28;20051;-76
2021/08/12 05:14:14;;;;;;;6.20;4.15;;;17.60;71.60;;;;;;5050444;28;20065;-77
2021/08/12 05:16:40;;;;;;;6.00;4.10;;;17.60;71.60;;;;;;5051342;28;20427;-76
2021/08/12 05:19:05;;;;;;;5.78;4.57;;;17.60;71.60;;;;;;5051058;28;20021;-77
2021/08/12 05:21:31;;;;;;;5.72;4.22;;;17.70;71.70;;;;;;5051220;28;20025;-77
2021/08/12 05:23:56;;;;;;;5.63;4.32;;;17.70;71.60;;;;;;5051996;28;20036;-77
2021/08/12 05:26:22;;;;;;;5.63;4.47;;;17.80;71.70;;;;;;5050598;28;20155;-76
2021/08/12 05:28:48;;;;;;;6.03;3.88;;;17.80;71.70;;;;;;5051998;28;20025;-77
2021/08/12 05:31:17;;;;;;;6.22;4.10;;;17.90;71.70;;;;;;5053442;28;20016;-77
2021/08/12 05:33:42;;;;;;;5.10;4.05;;;17.90;71.60;;;;;;5053114;28;20040;-77
2021/08/12 05:36:08;;;;;;;6.07;4.25;;;18.60;71.30;;;;;;5062936;28;20028;-76
2021/08/12 05:38:34;;;;;;;6.55;4.75;;;19.50;69.40;;;;;;5049856;28;20032;-77
2021/08/12 05:41:00;;;;;;;7.72;5.40;;;20.40;67.20;;;;;;5050630;28;20025;-77
2021/08/12 05:43:26;;;;;;;7.45;5.28;;;21.00;65.60;;;;;;5050413;28;20029;-76
2021/08/12 05:45:52;;;;;;;7.15;5.20;;;21.70;64.10;;;;;;5048345;28;20043;-77
2021/08/12 05:48:19;;;;;;;7.22;5.00;;;22.60;62.10;;;;;;5050880;28;20039;-77
2021/08/12 05:50:45;;;;;;;5.95;5.05;;;23.20;60.50;;;;;;5050412;28;20013;-77
2021/08/12 05:53:12;;;;;;;8.45;6.30;;;24.10;59.00;;;;;;5050086;28;20054;-77
2021/08/12 05:55:39;;;;;;;7.57;5.88;;;24.70;56.90;;;;;;5051347;28;20075;-77
2021/08/12 05:58:04;;;;;;;7.50;5.95;;;24.30;56.50;;;;;;5050709;28;20017;-77
2021/08/12 06:00:30;;;;;;;7.65;5.22;;;23.80;57.10;;;;;;5049821;28;20387;-76
2021/08/12 06:02:55;;;;;;;8.35;6.03;;;23.30;58.20;;;;;;5050914;28;20028;-77
2021/08/12 06:05:21;;;;;;;10.90;7.55;;;22.70;59.20;;;;;;5050192;28;20017;-76
2021/08/12 06:07:46;;;;;;;7.72;5.53;;;22.90;59.40;;;;;;5049516;28;20040;-77
2021/08/12 06:10:13;;;;;;;7.57;5.63;;;23.00;59.00;;;;;;5050208;28;20139;-77
2021/08/12 06:12:38;;;;;;;5.95;4.50;;;23.10;58.70;;;;;;5047453;28;20025;-75
2021/08/12 06:15:06;;;;;;;8.55;6.38;;;22.90;58.70;;;;;;5049005;28;20031;-75
2021/08/12 06:17:35;;;;;;;8.35;5.88;;;22.90;59.00;;;;;;5045080;28;20021;-77
2021/08/12 06:20:01;;;;;;;10.20;6.68;;;23.90;57.60;;;;;;5048520;28;20043;-80
2021/08/12 06:22:27;;;;;;;7.72;5.93;;;24.80;55.10;;;;;;5049464;28;20463;-76
2021/08/12 06:24:52;;;;;;;6.97;5.28;;;25.50;53.70;;;;;;5045129;28;20116;-76
2021/08/12 06:27:18;;;;;;;7.70;5.55;;;26.10;52.50;;;;;;5049330;28;20024;-77
2021/08/12 06:29:43;;;;;;;7.18;5.68;;;26.70;51.10;;;;;;5048936;28;20031;-76
2021/08/12 06:32:10;;;;;;;9.18;7.07;;;27.10;50.50;;;;;;5047603;28;20025;-78
2021/08/12 06:34:36;;;;;;;5.90;5.05;;;27.30;49.40;;;;;;5046758;28;20033;-75
2021/08/12 06:37:02;;;;;;;7.53;5.85;;;27.60;49.30;;;;;;5047486;28;20025;-75
2021/08/12 06:39:27;;;;;;;6.50;4.80;;;27.70;48.80;;;;;;5045283;28;20035;-75
2021/08/12 06:41:52;;;;;;;6.13;5.05;;;28.30;48.60;;;;;;5043553;28;20491;-74
2021/08/12 06:44:18;;;;;;;5.65;4.57;;;28.60;47.50;;;;;;5043835;28;20365;-75
2021/08/12 06:46:44;;;;;;;7.30;5.20;;;28.80;47.30;;;;;;5046826;28;20033;-75
2021/08/12 06:49:09;;;;;;;6.68;4.10;;;28.70;47.10;;;;;;5048429;28;20506;-75
2021/08/12 06:51:35;;;;;;;5.72;4.03;;;29.00;47.10;;;;;;5043951;28;20494;-75
2021/08/12 06:54:01;;;;;;;4.95;3.83;;;29.40;46.60;;;;;;5047443;28;20032;-75
2021/08/12 06:56:27;;;;;;;10.40;8.63;;;29.60;46.20;;;;;;5048320;28;20036;-75
2021/08/12 06:58:52;;;;;;;6.25;5.45;;;29.70;46.20;;;;;;5043156;28;20066;-73
2021/08/12 07:01:18;;;;;;;5.80;4.38;;;29.90;46.20;;;;;;5043975;28;20472;-73
2021/08/12 07:03:43;;;;;;;5.07;3.70;;;29.90;45.50;;;;;;5046414;28;20018;-76
2021/08/12 07:06:09;;;;;;;4.97;3.70;;;30.00;45.80;;;;;;5046756;28;20087;-74
2021/08/12 07:08:34;;;;;;;5.15;4.20;;;30.20;45.70;;;;;;5046448;28;20510;-75
2021/08/12 07:11:00;;;;;;;4.93;3.53;;;30.20;45.30;;;;;;5049142;28;20487;-76
2021/08/12 07:13:25;;;;;;;5.95;4.50;;;30.10;45.40;;;;;;5048377;28;20029;-76
2021/08/12 07:15:51;;;;;;;5.07;4.10;;;30.00;44.90;;;;;;5048435;28;20036;-74
2021/08/12 07:18:16;;;;;;;5.15;4.38;;;30.00;45.10;;;;;;5046762;28;20029;-76
2021/08/12 07:20:42;;;;;;;5.57;3.33;;;30.00;44.70;;;;;;5046323;28;20029;-76
2021/08/12 07:23:07;;;;;;;4.60;3.63;;;29.80;44.70;;;;;;5046363;28;20022;-75
2021/08/12 07:25:33;;;;;;;4.43;3.53;;;30.20;44.80;;;;;;5048761;28;20032;-74
2021/08/12 07:27:58;;;;;;;4.25;3.28;;;30.30;44.60;;;;;;5050584;28;20098;-76
2021/08/12 07:30:24;;;;;;;4.35;3.70;;;30.60;44.30;;;;;;5048429;28;20472;-77
2021/08/12 07:32:49;;;;;;;4.93;4.07;;;30.70;44.00;;;;;;5049201;28;20056;-75
2021/08/12 07:35:18;;;;;;;6.35;4.45;;;30.60;43.90;;;;;;5051157;28;20029;-74
2021/08/12 07:37:43;;;;;;;4.50;3.40;;;30.50;43.80;;;;;;5047947;28;20036;-75
2021/08/12 07:40:09;;;;;;;6.68;3.65;;;30.50;44.00;;;;;;5050324;28;20119;-75
2021/08/12 07:42:35;;;;;;;5.43;3.63;;;30.70;43.90;;;;;;5051537;28;20021;-76
2021/08/12 07:45:02;;;;;;;4.18;3.03;;;31.00;43.70;;;;;;5051718;28;20036;-75
2021/08/12 07:47:29;;;;;;;5.40;3.50;;;31.20;43.60;;;;;;5050335;28;20533;-77
2021/08/12 07:49:55;;;;;;;4.30;3.63;;;30.90;43.40;;;;;;5049887;28;20029;-75
2021/08/12 07:52:20;;;;;;;5.18;4.07;;;30.60;43.80;;;;;;5053110;28;20064;-77
2021/08/12 07:54:48;;;;;;;4.50;3.58;;;30.50;44.20;;;;;;5049261;28;20475;-76
2021/08/12 07:57:14;;;;;;;5.65;3.65;;;30.30;44.70;;;;;;5051936;28;20032;-75
2021/08/12 07:59:41;;;;;;;4.10;3.50;;;29.90;44.50;;;;;;5052803;28;20045;-75
2021/08/12 08:02:07;;;;;;;5.00;3.63;;;29.50;45.40;;;;;;5051847;28;20028;-75
2021/08/12 08:04:32;;;;;;;4.18;3.50;;;29.40;45.90;;;;;;5048444;28;20029;-75
2021/08/12 08:07:00;;;;;;;3.25;2.80;;;29.00;46.20;;;;;;5050130;28;20090;-74
2021/08/12 08:09:26;;;;;;;4.93;3.63;;;28.50;47.20;;;;;;5049372;28;20552;-77
2021/08/12 08:11:51;;;;;;;4.70;3.38;;;27.90;47.20;;;;;;5051134;28;20021;-74
2021/08/12 08:14:17;;;;;;;5.40;4.25;;;27.60;48.20;;;;;;5049537;28;20094;-77
2021/08/12 08:16:43;;;;;;;4.53;3.90;;;27.40;48.50;;;;;;5048771;28;20071;-76
2021/08/12 08:19:09;;;;;;;4.65;3.55;;;26.90;48.80;;;;;;5051915;28;20104;-76
2021/08/12 08:21:35;;;;;;;5.45;3.92;;;26.40;49.80;;;;;;5050618;28;20104;-75
2021/08/12 08:24:01;;;;;;;3.97;2.95;;;26.10;50.30;;;;;;5045137;28;20407;-75
2021/08/12 08:26:29;;;;;;;3.22;2.80;;;25.90;51.10;;;;;;5044237;28;20113;-74
2021/08/12 08:28:55;;;;;;;5.32;3.70;;;25.90;51.70;;;;;;5046322;28;20111;-75
2021/08/12 08:31:21;;;;;;;4.28;3.40;;;25.90;51.60;;;;;;5051833;28;20044;-76
2021/08/12 08:33:46;;;;;;;4.63;3.72;;;25.90;51.90;;;;;;5051267;28;20029;-74
2021/08/12 08:36:12;;;;;;;4.43;2.67;;;25.90;52.00;;;;;;5047627;28;20151;-75
2021/08/12 08:38:40;;;;;;;3.63;3.03;;;25.90;51.80;;;;;;5044937;28;20163;-73
2021/08/12 08:41:07;;;;;;;5.65;4.30;;;25.80;51.60;;;;;;5049633;28;20036;-76
2021/08/12 08:43:34;;;;;;;3.72;2.95;;;25.70;51.30;;;;;;5064271;28;20021;-75
2021/08/12 08:46:02;;;;;;;5.22;3.50;;;25.60;51.60;;;;;;5044043;28;20028;-75
2021/08/12 08:48:31;;;;;;;5.82;4.55;;;25.60;51.50;;;;;;5044648;28;20029;-76
2021/08/12 08:50:58;;;;;;;5.18;3.60;;;25.50;51.40;;;;;;5049882;28;20033;-77
2021/08/12 08:53:24;;;;;;;6.20;3.47;;;25.60;51.80;;;;;;5041911;28;20025;-79
2021/08/12 08:55:51;;;;;;;5.22;3.50;;;25.60;51.70;;;;;;5048768;28;20511;-77
2021/08/12 08:58:18;;;;;;;3.75;2.67;;;25.80;52.00;;;;;;5049086;28;20029;-76
2021/08/12 09:00:44;;;;;;;4.28;3.30;;;25.90;52.00;;;;;;5049835;28;20550;-78
2021/08/12 09:03:09;;;;;;;4.13;2.95;;;26.10;51.50;;;;;;5051815;28;20100;-75
2021/08/12 09:05:35;;;;;;;5.05;3.03;;;26.10;51.20;;;;;;5051466;28;20031;-74
2021/08/12 09:08:01;;;;;;;6.28;4.40;;;26.00;51.00;;;;;;5053040;28;20052;-74
2021/08/12 09:10:27;;;;;;;4.47;3.33;;;25.80;50.30;;;;;;5050433;28;20096;-75
2021/08/12 09:12:52;;;;;;;4.68;3.30;;;25.80;51.00;;;;;;5050832;28;20033;-75
2021/08/12 09:15:21;;;;;;;6.53;3.92;;;25.90;51.20;;;;;;5049343;28;20033;-75
2021/08/12 09:17:48;;;;;;;3.78;2.53;;;26.00;50.80;;;;;;5049952;28;20098;-75
2021/08/12 09:20:16;;;;;;;5.03;3.45;;;26.00;51.00;;;;;;5051287;28;20033;-76
2021/08/12 09:23:02;;;;;;;4.30;3.10;;;26.10;51.10;;;;;;5049908;28;20566;-77
2021/08/12 09:25:27;;;;;;;5.05;4.20;;;26.10;50.80;;;;;;5053215;28;20032;-76
2021/08/12 09:28:15;;;;;;;4.28;3.28;;;26.10;50.80;;;;;;5050787;28;20029;-77
2021/08/12 09:31:00;;;;;;;5.38;3.40;;;26.00;50.70;;;;;;5049689;28;20029;-75
2021/08/12 09:33:28;;;;;;;4.47;3.47;;;26.00;50.60;;;;;;5048643;28;20767;-74
2021/08/12 09:35:54;;;;;;;4.47;3.63;;;26.10;50.70;;;;;;5048158;28;20407;-74
2021/08/12 09:38:21;;;;;;;3.90;2.88;;;26.00;50.40;;;;;;5045553;28;20029;-76
2021/08/12 09:41:00;;;;;;;2.90;2.40;;;26.20;50.70;;;;;;5045629;28;20025;-77
2021/08/12 09:43:36;;;;;;;3.78;3.22;;;26.30;50.60;;;;;;5049167;28;20090;-75
2021/08/12 09:46:05;;;;;;;6.10;3.20;;;26.20;50.10;;;;;;5048576;28;20100;-76
2021/08/12 09:48:31;;;;;;;5.15;3.03;;;26.10;49.70;;;;;;5055400;28;20163;-75
2021/08/12 09:50:59;;;;;;;3.55;2.78;;;26.10;50.00;;;;;;5049344;28;20538;-77
2021/08/12 09:53:25;;;;;;;5.03;4.22;;;26.20;49.90;;;;;;5046872;28;20025;-74
2021/08/12 09:55:52;;;;;;;4.50;3.20;;;26.30;49.00;;;;;;5049669;28;20035;-74
2021/08/12 09:58:18;;;;;;;3.70;2.75;;;26.20;49.10;;;;;;5047546;28;20086;-75
2021/08/12 10:00:49;;;;;;;4.15;2.50;;;26.20;49.20;;;;;;5051810;28;20112;-74
2021/08/12 10:03:32;;;;;;;3.17;2.40;;;26.30;49.40;;;;;;5048107;28;20021;-74
2021/08/12 10:06:02;;;;;;;3.78;2.45;;;26.30;49.50;;;;;;5046082;28;20998;-74
2021/08/12 10:08:39;;;;;;;3.40;2.67;;;26.30;49.10;;;;;;5032772;28;20094;-75
2021/08/12 10:11:43;;;;;;;3.60;2.42;;;26.30;49.10;;;;;;5048820;28;20071;-74
2021/08/12 10:14:09;;;;;;;4.15;2.63;;;26.40;49.40;;;;;;5021115;28;20033;-74
2021/08/12 10:16:36;;;;;;;3.15;2.22;;;26.50;49.20;;;;;;5009965;28;20022;-75
2021/08/12 10:19:09;;;;;;;3.97;2.50;;;26.40;49.00;;;;;;5036406;28;20128;-75
2021/08/12 10:21:39;;;;;;;4.10;2.80;;;26.50;48.70;;;;;;5047077;28;20057;-74
2021/08/12 10:24:06;;;;;;;4.45;2.45;;;26.50;48.40;;;;;;5048480;28;20033;-75
2021/08/12 10:26:33;;;;;;;2.90;2.60;;;26.50;48.50;;;;;;5048332;28;20391;-75
2021/08/12 10:29:03;;;;;;;2.50;2.10;;;26.60;48.20;;;;;;5049514;28;20041;-75
2021/08/12 10:31:30;;;;;;;2.63;1.60;;;26.70;48.50;;;;;;5049398;28;20143;-75
2021/08/12 10:33:56;;;;;;;2.40;1.88;;;26.80;48.60;;;;;;5047346;28;20045;-76
2021/08/12 10:36:22;;;;;;;2.80;1.90;;;26.90;48.60;;;;;;5046228;28;20075;-76
2021/08/12 10:38:48;;;;;;;2.20;1.80;;;27.00;48.60;;;;;;5044324;28;20025;-77
2021/08/12 10:41:16;;;;;;;2.63;2.13;;;27.10;48.70;;;;;;5049125;28;20021;-76
2021/08/12 10:43:43;;;;;;;3.08;2.22;;;27.30;48.70;;;;;;5047539;28;20055;-76
2021/08/12 10:46:09;;;;;;;3.75;2.88;;;27.40;48.30;;;;;;5048970;28;20057;-76
2021/08/12 10:48:35;;;;;;;3.25;2.35;;;27.50;48.10;;;;;;5047823;28;20059;-75
2021/08/12 10:51:12;;;;;;;3.42;2.60;;;27.30;48.00;;;;;;5047277;28;20036;-74
2021/08/12 10:53:43;;;;;;;3.55;2.50;;;27.40;48.10;;;;;;5045041;28;20028;-75
2021/08/12 10:56:14;;;;;;;2.42;2.13;;;27.50;48.10;;;;;;5045565;28;20037;-75
2021/08/12 10:58:50;;;;;;;2.55;2.00;;;27.50;48.30;;;;;;5048749;28;20074;-76
2021/08/12 11:01:31;;;;;;;3.15;2.30;;;27.60;48.20;;;;;;5048071;28;20090;-74
2021/08/12 11:04:01;;;;;;;3.83;2.63;;;27.60;48.70;;;;;;5048362;28;20567;-76
2021/08/12 11:06:44;;;;;;;7.30;4.40;;;27.60;48.00;;;;;;5042657;28;20019;-76
2021/08/12 11:09:11;;;;;;;3.45;2.72;;;27.60;46.70;;;;;;5048113;28;20032;-75
2021/08/12 11:11:36;;;;;;;3.50;2.50;;;27.40;47.50;;;;;;5045277;28;20021;-76
2021/08/12 11:14:05;;;;;;;2.33;2.10;;;27.50;47.80;;;;;;5044683;28;20114;-75
2021/08/12 11:16:40;;;;;;;2.60;2.20;;;27.60;48.00;;;;;;5048218;28;20021;-76
2021/08/12 11:19:29;;;;;;;3.03;2.45;;;27.70;48.10;;;;;;5048315;28;20052;-75
2021/08/12 11:21:56;;;;;;;5.07;2.60;;;27.70;48.00;;;;;;5043501;28;20090;-74
2021/08/12 11:24:24;;;;;;;3.83;3.00;;;27.90;48.00;;;;;;5049547;28;20103;-75
2021/08/12 11:26:50;;;;;;;5.45;3.53;;;28.00;47.60;;;;;;5046776;28;20124;-76
2021/08/12 11:29:25;;;;;;;5.45;4.00;;;28.00;47.50;;;;;;5050003;28;20032;-78
2021/08/12 11:31:56;;;;;;;3.20;2.90;;;28.00;46.50;;;;;;5045428;28;20064;-75
2021/08/12 11:34:46;;;;;;;3.80;2.80;;;27.90;47.00;;;;;;5049349;28;20072;-76
2021/08/12 11:37:15;;;;;;;2.55;2.30;;;27.90;47.40;;;;;;5050978;28;20086;-75
2021/08/12 11:40:04;;;;;;;3.45;2.35;;;28.00;47.60;;;;;;5048050;28;20025;-75
2021/08/12 11:42:34;;;;;;;2.95;2.45;;;28.10;47.30;;;;;;5046183;28;20021;-74
2021/08/12 11:45:04;;;;;;;4.07;2.78;;;28.30;47.20;;;;;;5048403;28;20112;-75
2021/08/12 11:47:30;;;;;;;5.68;3.70;;;28.20;46.80;;;;;;5047308;28;20025;-77
2021/08/12 11:49:57;;;;;;;3.05;2.70;;;28.20;45.90;;;;;;5046230;28;20022;-75
2021/08/12 11:52:27;;;;;;;4.13;2.95;;;28.20;46.60;;;;;;5048270;28;20112;-76
2021/08/12 11:55:12;;;;;;;4.32;2.42;;;28.30;46.70;;;;;;5048869;28;20037;-75
2021/08/12 11:57:41;;;;;;;3.20;2.20;;;28.40;46.60;;;;;;5045345;28;20021;-74
2021/08/12 12:00:20;;;;;;;3.40;2.17;;;28.60;46.50;;;;;;5046200;28;20017;-75
2021/08/12 12:02:58;;;;;;;3.05;2.55;;;28.70;46.40;;;;;;5035434;28;20064;-74
2021/08/12 12:05:28;;;;;;;4.25;3.00;;;28.90;46.40;;;;;;5041040;28;20032;-75
2021/08/12 12:08:08;;;;;;;3.13;2.17;;;28.90;45.40;;;;;;5042071;28;20057;-75
2021/08/12 12:10:35;;;;;;;3.50;2.40;;;28.80;46.60;;;;;;5044861;28;20024;-76
2021/08/12 12:13:29;;;;;;;3.55;2.40;;;28.70;45.80;;;;;;5052205;28;20028;-76
2021/08/12 12:15:56;;;;;;;2.22;2.03;;;28.80;46.20;;;;;;5044747;28;20091;-76
2021/08/12 12:18:44;;;;;;;3.30;2.70;;;28.80;46.00;;;;;;5053583;28;20036;-76
2021/08/12 12:21:15;;;;;;;3.00;2.60;;;28.90;45.80;;;;;;5049233;28;20025;-75
2021/08/12 12:23:44;;;;;;;3.53;2.70;;;28.90;45.80;;;;;;5050311;28;20021;-75
2021/08/12 12:26:24;;;;;;;2.80;2.40;;;28.90;45.80;;;;;;5045779;28;20695;-74
2021/08/12 12:28:50;;;;;;;4.03;2.80;;;29.00;45.90;;;;;;5051453;28;20387;-74
2021/08/12 12:31:21;;;;;;;4.63;3.10;;;29.10;45.90;;;;;;5052468;28;20040;-74
2021/08/12 12:34:01;;;;;;;4.63;3.20;;;28.90;45.40;;;;;;5050492;28;20036;-76
2021/08/12 12:36:28;;;;;;;3.42;2.58;;;28.80;45.50;;;;;;5049612;28;20028;-76
2021/08/12 12:38:54;;;;;;;3.33;2.65;;;28.70;45.90;;;;;;5050110;28;20442;-76
2021/08/12 12:41:22;;;;;;;4.32;2.35;;;28.70;46.00;;;;;;5050112;28;20029;-74
2021/08/12 12:43:48;;;;;;;4.35;2.22;;;28.60;46.10;;;;;;5051268;28;20025;-74
2021/08/12 12:46:29;;;;;;;3.60;2.67;;;28.70;46.30;;;;;;5049677;28;20028;-76
2021/08/12 12:48:55;;;;;;;3.10;2.17;;;28.70;46.10;;;;;;5050673;28;20033;-74
2021/08/12 12:51:26;;;;;;;3.40;2.75;;;28.60;46.30;;;;;;5051691;28;20040;-76
2021/08/12 12:53:51;;;;;;;2.88;2.00;;;28.60;46.20;;;;;;5049733;28;20063;-76